createdAt,value
2018-01-05T00:02:24.594Z,8.30
2018-01-05T00:04:52.186Z,8.20
2018-01-05T00:07:19.704Z,8.20
2018-01-05T00:09:47.266Z,8.10
2018-01-05T00:12:14.836Z,8.00
2018-01-05T00:14:43.117Z,8.00
2018-01-05T00:17:11.417Z,7.90
2018-01-05T00:19:38.971Z,7.90
2018-01-05T00:22:06.506Z,7.80
2018-01-05T00:24:34.834Z,7.70
2018-01-05T00:27:02.377Z,7.70
2018-01-05T00:29:29.890Z,7.60
2018-01-05T00:31:58.197Z,7.60
2018-01-05T00:34:25.713Z,7.50
2018-01-05T00:36:53.293Z,7.40
2018-01-05T00:39:21.579Z,7.40
2018-01-05T00:41:49.885Z,7.30
2018-01-05T00:44:17.405Z,7.30
2018-01-05T00:46:45.701Z,7.20
2018-01-05T00:49:13.219Z,7.20
2018-01-05T00:51:40.763Z,7.10
2018-01-05T00:54:08.286Z,7.00
2018-01-05T00:56:35.824Z,7.10
2018-01-05T00:59:03.334Z,7.00
2018-01-05T01:01:30.876Z,7.00
2018-01-05T01:03:58.397Z,6.90
2018-01-05T01:06:25.935Z,7.00
2018-01-05T01:08:54.221Z,7.00
2018-01-05T01:11:22.531Z,7.00
2018-01-05T01:13:50.070Z,6.90
2018-01-05T01:16:17.624Z,7.00
2018-01-05T01:18:45.145Z,7.00
2018-01-05T01:21:12.679Z,7.10
2018-01-05T01:23:40.209Z,7.10
2018-01-05T01:26:07.744Z,7.10
2018-01-05T01:28:36.031Z,7.00
2018-01-05T01:31:03.569Z,7.00
2018-01-05T01:33:31.861Z,6.90
2018-01-05T01:36:00.172Z,6.90
2018-01-05T01:38:27.691Z,6.90
2018-01-05T01:40:56.008Z,6.90
2018-01-05T01:43:23.534Z,6.80
2018-01-05T01:45:51.089Z,6.80
2018-01-05T01:48:18.616Z,6.80
2018-01-05T01:50:46.130Z,6.70
2018-01-05T01:53:13.662Z,6.70
2018-01-05T01:55:41.188Z,6.70
2018-01-05T01:58:08.729Z,6.70
2018-01-05T02:00:36.253Z,6.50
2018-01-05T02:03:03.798Z,6.50
2018-01-05T02:05:32.081Z,6.50
2018-01-05T02:07:59.619Z,6.50
2018-01-05T02:10:27.897Z,6.40
2018-01-05T02:12:56.201Z,6.40
2018-01-05T02:15:24.505Z,6.30
2018-01-05T02:17:52.046Z,6.30
2018-01-05T02:20:19.564Z,6.30
2018-01-05T02:22:47.878Z,6.20
2018-01-05T02:25:15.398Z,6.20
2018-01-05T02:27:43.713Z,6.20
2018-01-05T02:30:11.233Z,6.20
2018-01-05T02:32:39.541Z,6.00
2018-01-05T02:35:07.064Z,6.00
2018-01-05T02:37:35.829Z,5.90
2018-01-05T02:40:03.356Z,5.90
2018-01-05T02:42:30.905Z,5.80
2018-01-05T02:44:58.422Z,5.80
2018-01-05T02:47:25.970Z,5.80
2018-01-05T02:49:53.498Z,5.70
2018-01-05T02:52:21.049Z,5.70
2018-01-05T02:54:48.574Z,5.60
2018-01-05T02:57:16.123Z,5.70
2018-01-05T02:59:44.427Z,5.60
2018-01-05T03:02:11.997Z,5.60
2018-01-05T03:04:39.513Z,5.60
2018-01-05T03:07:07.824Z,5.30
2018-01-05T03:09:35.349Z,5.20
2018-01-05T03:12:03.661Z,5.00
2018-01-05T03:14:31.185Z,5.00
2018-01-05T03:16:59.489Z,4.80
2018-01-05T03:19:27.015Z,4.80
2018-01-05T03:21:55.319Z,4.70
2018-01-05T03:24:22.832Z,4.70
2018-01-05T03:26:50.382Z,4.70
2018-01-05T03:29:17.896Z,4.70
2018-01-05T03:31:45.405Z,4.80
2018-01-05T03:34:12.945Z,5.00
2018-01-05T03:36:40.469Z,5.10
2018-01-05T03:39:08.019Z,5.20
2018-01-05T03:41:35.537Z,5.30
2018-01-05T03:44:03.092Z,5.40
2018-01-05T03:46:30.653Z,5.50
2018-01-05T03:48:58.193Z,5.60
2018-01-05T03:51:25.718Z,5.70
2018-01-05T03:53:53.265Z,5.70
2018-01-05T03:56:20.797Z,5.80
2018-01-05T03:58:48.330Z,5.80
2018-01-05T04:01:15.848Z,5.80
2018-01-05T04:03:43.377Z,5.80
2018-01-05T04:06:11.748Z,5.80
2018-01-05T04:08:39.281Z,5.80
2018-01-05T04:11:06.796Z,5.80
2018-01-05T04:13:34.342Z,5.80
2018-01-05T04:16:01.880Z,5.70
2018-01-05T04:18:30.187Z,5.70
2018-01-05T04:20:57.702Z,5.70
2018-01-05T04:23:25.236Z,5.70
2018-01-05T04:25:52.752Z,5.70
2018-01-05T04:28:20.285Z,5.70
2018-01-05T04:30:47.796Z,5.60
2018-01-05T04:33:15.348Z,5.70
2018-01-05T04:35:42.889Z,5.70
2018-01-05T04:38:10.425Z,5.70
2018-01-05T04:40:38.705Z,5.60
2018-01-05T04:43:06.250Z,5.60
2018-01-05T04:45:33.782Z,5.60
2018-01-05T04:48:01.316Z,5.60
2018-01-05T04:50:28.836Z,5.50
2018-01-05T04:52:56.383Z,5.40
2018-01-05T04:55:23.914Z,5.40
2018-01-05T04:57:51.454Z,5.40
2018-01-05T05:00:18.983Z,5.40
2018-01-05T05:02:46.525Z,5.40
2018-01-05T05:05:14.813Z,5.30
2018-01-05T05:07:43.105Z,5.20
2018-01-05T05:10:10.633Z,5.20
2018-01-05T05:12:38.954Z,5.10
2018-01-05T05:15:06.482Z,5.10
2018-01-05T05:17:34.797Z,4.90
2018-01-05T05:20:02.317Z,4.90
2018-01-05T05:22:29.850Z,4.80
2018-01-05T05:24:57.397Z,4.70
2018-01-05T05:27:24.931Z,4.70
2018-01-05T05:29:52.481Z,4.60
2018-01-05T05:32:20.001Z,4.60
2018-01-05T05:34:47.558Z,4.60
2018-01-05T05:37:15.846Z,4.50
2018-01-05T05:39:43.387Z,4.40
2018-01-05T05:42:11.720Z,4.30
2018-01-05T05:44:39.246Z,4.30
2018-01-05T05:47:06.774Z,4.30
2018-01-05T05:49:34.315Z,4.20
2018-01-05T05:52:01.836Z,4.10
2018-01-05T05:54:29.378Z,4.00
2018-01-05T05:56:56.907Z,3.90
2018-01-05T05:59:25.211Z,3.70
2018-01-05T06:01:52.779Z,3.70
2018-01-05T06:04:20.329Z,3.60
2018-01-05T06:06:47.847Z,3.60
2018-01-05T06:09:15.385Z,3.60
2018-01-05T06:11:42.906Z,3.50
2018-01-05T06:14:10.445Z,3.50
2018-01-05T06:16:38.731Z,3.40
2018-01-05T06:19:06.273Z,3.40
2018-01-05T06:21:34.568Z,3.30
2018-01-05T06:24:02.108Z,3.30
2018-01-05T06:26:30.394Z,3.30
2018-01-05T06:28:58.694Z,3.30
2018-01-05T06:31:26.211Z,3.30
2018-01-05T06:33:54.529Z,3.50
2018-01-05T06:36:22.045Z,3.50
2018-01-05T06:38:49.588Z,3.50
2018-01-05T06:41:17.123Z,3.50
2018-01-05T06:43:44.669Z,3.40
2018-01-05T06:46:12.185Z,3.40
2018-01-05T06:48:40.489Z,3.30
2018-01-05T06:51:08.009Z,3.30
2018-01-05T06:53:35.541Z,3.20
2018-01-05T06:56:03.087Z,3.30
2018-01-05T06:58:30.621Z,3.30
2018-01-05T07:00:58.131Z,3.20
2018-01-05T07:03:25.676Z,3.20
2018-01-05T07:05:53.199Z,3.20
2018-01-05T07:08:20.750Z,3.10
2018-01-05T07:10:48.317Z,3.10
2018-01-05T07:13:15.862Z,3.10
2018-01-05T07:15:43.387Z,3.00
2018-01-05T07:18:10.950Z,2.90
2018-01-05T07:20:38.464Z,2.90
2018-01-05T07:23:05.982Z,3.10
2018-01-05T07:25:34.290Z,3.30
2018-01-05T07:28:01.825Z,3.30
2018-01-05T07:30:29.373Z,3.30
2018-01-05T07:32:57.666Z,3.70
2018-01-05T07:35:25.210Z,3.70
2018-01-05T07:37:53.510Z,3.80
2018-01-05T07:40:21.094Z,3.80
2018-01-05T07:42:48.626Z,3.90
2018-01-05T07:45:16.165Z,4.10
2018-01-05T07:47:43.681Z,4.10
2018-01-05T07:50:11.330Z,4.10
2018-01-05T07:52:38.848Z,4.10
2018-01-05T07:55:06.388Z,4.10
2018-01-05T07:57:35.023Z,4.10
2018-01-05T08:00:02.570Z,4.10
2018-01-05T08:02:30.085Z,4.20
2018-01-05T08:04:58.390Z,4.20
2018-01-05T08:07:25.943Z,4.20
2018-01-05T08:09:53.502Z,4.30
2018-01-05T08:12:21.021Z,4.30
2018-01-05T08:14:48.555Z,4.30
2018-01-05T08:17:16.068Z,4.40
2018-01-05T08:19:43.625Z,4.40
2018-01-05T08:22:11.921Z,4.50
2018-01-05T08:24:39.462Z,4.50
2018-01-05T08:27:07.741Z,4.60
2018-01-05T08:29:35.277Z,4.60
2018-01-05T08:32:02.788Z,4.60
2018-01-05T08:34:30.330Z,4.60
2018-01-05T08:36:57.849Z,4.70
2018-01-05T08:39:25.392Z,4.70
2018-01-05T08:41:52.917Z,4.80
2018-01-05T08:44:20.452Z,4.90
2018-01-05T08:46:47.974Z,5.00
2018-01-05T08:49:15.527Z,5.00
2018-01-05T08:51:43.057Z,5.10
2018-01-05T08:54:10.588Z,5.10
2018-01-05T08:56:38.111Z,5.20
2018-01-05T08:59:06.401Z,5.60
2018-01-05T09:01:34.718Z,5.90
2018-01-05T09:04:02.241Z,5.90
2018-01-05T09:06:29.776Z,6.20
2018-01-05T09:08:57.307Z,6.50
2018-01-05T09:11:24.844Z,6.80
2018-01-05T09:13:52.381Z,7.10
2018-01-05T09:16:19.916Z,7.40
2018-01-05T09:18:48.254Z,7.70
2018-01-05T09:21:15.755Z,7.60
2018-01-05T09:23:44.038Z,7.90
2018-01-05T09:26:11.582Z,7.80
2018-01-05T09:28:39.877Z,8.40
2018-01-05T09:31:08.186Z,8.60
2018-01-05T09:33:35.704Z,8.60
2018-01-05T09:36:04.015Z,8.90
2018-01-05T09:38:31.547Z,8.90
2018-01-05T09:40:59.857Z,9.10
2018-01-05T09:43:27.373Z,9.10
2018-01-05T09:45:55.685Z,8.90
2018-01-05T09:48:23.203Z,8.90
2018-01-05T09:50:51.516Z,9.00
2018-01-05T09:53:19.054Z,8.90
2018-01-05T09:55:46.610Z,9.00
2018-01-05T09:58:14.254Z,9.10
2018-01-05T10:00:41.813Z,9.20
2018-01-05T10:03:10.105Z,9.20
2018-01-05T10:05:37.645Z,9.20
2018-01-05T10:08:05.165Z,9.20
2018-01-05T10:10:32.727Z,9.30
2018-01-05T10:13:00.245Z,9.40
2018-01-05T10:15:27.797Z,9.50
2018-01-05T10:17:55.317Z,9.70
2018-01-05T10:20:22.863Z,9.70
2018-01-05T10:22:50.421Z,9.80
2018-01-05T10:25:17.964Z,10.00
2018-01-05T10:27:45.478Z,10.00
2018-01-05T10:30:13.798Z,9.90
2018-01-05T10:32:41.317Z,9.90
2018-01-05T10:35:09.593Z,9.80
2018-01-05T10:37:37.905Z,9.70
2018-01-05T10:40:05.425Z,9.70
2018-01-05T10:42:33.757Z,9.60
2018-01-05T10:45:01.304Z,9.60
2018-01-05T10:47:28.874Z,9.60
2018-01-05T10:49:56.397Z,9.50
2018-01-05T10:52:23.929Z,9.50
2018-01-05T10:54:52.220Z,9.50
2018-01-05T10:57:19.770Z,9.50
2018-01-05T10:59:47.286Z,9.40
2018-01-05T11:02:14.835Z,9.40
2018-01-05T11:04:42.348Z,9.50
2018-01-05T11:07:10.653Z,9.60
2018-01-05T11:09:38.174Z,9.60
2018-01-05T11:12:06.478Z,9.90
2018-01-05T11:14:33.992Z,9.90
2018-01-05T11:17:01.533Z,10.00
2018-01-05T11:19:29.060Z,10.10
2018-01-05T11:21:56.607Z,10.20
2018-01-05T11:24:24.132Z,10.40
2018-01-05T11:26:52.441Z,10.50
2018-01-05T11:29:19.956Z,10.50
2018-01-05T11:31:47.507Z,10.60
2018-01-05T11:34:15.047Z,10.80
2018-01-05T11:36:42.598Z,10.70
2018-01-05T11:39:10.124Z,10.90
2018-01-05T11:41:37.666Z,11.00
2018-01-05T11:44:05.950Z,11.00
2018-01-05T11:46:33.510Z,11.00
2018-01-05T11:49:01.035Z,11.10
2018-01-05T11:51:28.578Z,11.00
2018-01-05T11:53:56.111Z,11.00
2018-01-05T11:56:23.728Z,10.90
2018-01-05T11:58:52.017Z,10.80
2018-01-05T12:01:20.350Z,10.80
2018-01-05T12:03:48.009Z,10.70
2018-01-05T12:06:15.537Z,10.90
2018-01-05T12:08:43.074Z,10.80
2018-01-05T12:11:10.588Z,10.70
2018-01-05T12:13:39.391Z,10.80
2018-01-05T12:16:06.938Z,10.80
2018-01-05T12:18:34.490Z,10.90
2018-01-05T12:21:02.017Z,11.00
2018-01-05T12:23:29.552Z,11.00
2018-01-05T12:25:57.841Z,11.00
2018-01-05T12:28:25.380Z,11.00
2018-01-05T12:30:53.664Z,11.10
2018-01-05T12:33:21.197Z,11.00
2018-01-05T12:35:48.724Z,11.20
2018-01-05T12:38:16.297Z,11.10
2018-01-05T12:40:43.817Z,11.30
2018-01-05T12:43:11.362Z,11.20
2018-01-05T12:45:38.878Z,11.20
2018-01-05T12:48:07.196Z,11.10
2018-01-05T12:50:34.718Z,11.00
2018-01-05T12:53:03.009Z,10.90
2018-01-05T12:55:30.573Z,10.90
2018-01-05T12:57:58.852Z,11.00
2018-01-05T13:00:27.179Z,10.90
2018-01-05T13:02:54.700Z,10.90
2018-01-05T13:05:22.242Z,10.90
2018-01-05T13:07:50.544Z,10.90
2018-01-05T13:10:18.093Z,10.90
2018-01-05T13:12:45.610Z,10.90
2018-01-05T13:15:13.149Z,10.90
2018-01-05T13:17:40.664Z,10.90
2018-01-05T13:20:08.213Z,10.80
2018-01-05T13:22:35.737Z,10.80
2018-01-05T13:25:03.277Z,10.80
2018-01-05T13:27:30.794Z,10.80
2018-01-05T13:29:58.381Z,10.80
2018-01-05T13:32:25.901Z,10.80
2018-01-05T13:34:54.210Z,10.90
2018-01-05T13:37:21.757Z,10.80
2018-01-05T13:39:49.298Z,10.90
2018-01-05T13:42:16.830Z,10.90
2018-01-05T13:44:44.381Z,11.00
2018-01-05T13:47:11.904Z,10.90
2018-01-05T13:49:39.445Z,10.90
2018-01-05T13:52:07.045Z,10.90
2018-01-05T13:54:34.565Z,10.90
2018-01-05T13:57:02.876Z,10.90
2018-01-05T13:59:30.409Z,10.80
2018-01-05T14:01:57.965Z,10.80
2018-01-05T14:04:25.490Z,10.80
2018-01-05T14:06:53.074Z,10.80
2018-01-05T14:09:21.370Z,10.60
2018-01-05T14:11:48.909Z,10.50
2018-01-05T14:14:16.428Z,10.40
2018-01-05T14:16:43.977Z,10.40
2018-01-05T14:19:11.501Z,10.20
2018-01-05T14:21:39.054Z,9.90
2018-01-05T14:24:06.604Z,9.80
2018-01-05T14:26:34.165Z,9.70
2018-01-05T14:29:01.696Z,9.70
2018-01-05T14:31:29.228Z,9.70
2018-01-05T14:33:56.777Z,9.70
2018-01-05T14:36:31.549Z,9.60
2018-01-05T14:38:59.057Z,9.50
2018-01-05T14:41:26.601Z,9.50
2018-01-05T14:43:54.170Z,9.50
2018-01-05T14:46:21.681Z,9.40
2018-01-05T14:48:49.194Z,9.40
2018-01-05T14:51:16.733Z,9.30
2018-01-05T14:53:44.259Z,9.40
2018-01-05T14:56:11.800Z,9.40
2018-01-05T14:58:40.089Z,9.40
2018-01-05T15:01:07.621Z,9.40
2018-01-05T15:03:35.169Z,9.50
2018-01-05T15:06:02.682Z,9.50
2018-01-05T15:08:30.226Z,9.60
2018-01-05T15:10:57.740Z,9.50
2018-01-05T15:13:25.277Z,9.50
2018-01-05T15:15:52.798Z,9.40
2018-01-05T15:18:21.094Z,9.30
2018-01-05T15:20:48.619Z,9.30
2018-01-05T15:23:16.166Z,9.30
2018-01-05T15:25:44.445Z,9.00
2018-01-05T15:28:12.752Z,8.90
2018-01-05T15:30:40.264Z,8.90
2018-01-05T15:33:07.792Z,8.80
2018-01-05T15:35:35.321Z,8.70
2018-01-05T15:38:02.862Z,8.60
2018-01-05T15:40:31.147Z,8.60
2018-01-05T15:42:58.676Z,8.60
2018-01-05T15:45:26.192Z,8.70
2018-01-05T15:47:53.730Z,8.70
2018-01-05T15:50:21.241Z,8.70
2018-01-05T15:52:48.778Z,8.60
2018-01-05T15:55:16.299Z,8.70
2018-01-05T15:57:43.888Z,8.70
2018-01-05T16:00:11.409Z,8.60
2018-01-05T16:02:38.949Z,8.60
2018-01-05T16:05:07.233Z,8.60
2018-01-05T16:07:35.534Z,8.60
2018-01-05T16:10:03.815Z,8.60
2018-01-05T16:12:31.361Z,8.60
2018-01-05T16:14:58.982Z,8.70
2018-01-05T16:17:26.465Z,8.70
2018-01-05T16:19:54.741Z,8.70
2018-01-05T16:22:23.041Z,8.70
2018-01-05T16:24:50.558Z,8.70
2018-01-05T16:27:18.866Z,8.80
2018-01-05T16:29:46.426Z,8.70
2018-01-05T16:32:14.197Z,8.80
2018-01-05T16:34:41.727Z,8.80
2018-01-05T16:37:10.071Z,8.80
2018-01-05T16:39:37.633Z,8.80
2018-01-05T16:42:05.169Z,8.90
2018-01-05T16:44:32.690Z,8.80
2018-01-05T16:47:00.271Z,8.90
2018-01-05T16:49:27.830Z,8.80
2018-01-05T16:51:55.369Z,8.90
2018-01-05T16:54:22.934Z,8.80
2018-01-05T16:56:50.492Z,8.80
2018-01-05T16:59:18.076Z,8.70
2018-01-05T17:01:45.601Z,8.70
2018-01-05T17:04:13.178Z,8.70
2018-01-05T17:06:40.750Z,8.70
2018-01-05T17:09:08.291Z,8.80
2018-01-05T17:11:35.852Z,8.80
2018-01-05T17:14:03.391Z,8.80
2018-01-05T17:16:30.914Z,8.80
2018-01-05T17:18:58.490Z,8.80
2018-01-05T17:21:26.825Z,8.90
2018-01-05T17:23:54.410Z,8.90
2018-01-05T17:26:21.934Z,9.00
2018-01-05T17:28:49.486Z,9.00
2018-01-05T17:31:17.000Z,9.00
2018-01-05T17:33:45.353Z,9.00
2018-01-05T17:36:12.869Z,9.00
2018-01-05T17:38:40.465Z,8.90
2018-01-05T17:41:07.994Z,9.00
2018-01-05T17:43:36.306Z,8.90
2018-01-05T17:46:03.820Z,8.90
2018-01-05T17:48:31.357Z,9.00
2018-01-05T17:50:58.933Z,9.00
2018-01-05T17:53:26.512Z,9.10
2018-01-05T17:55:54.084Z,9.20
2018-01-05T17:58:21.665Z,9.30
2018-01-05T18:00:49.190Z,9.30
2018-01-05T18:03:16.775Z,9.30
2018-01-05T18:05:44.332Z,9.40
2018-01-05T18:08:11.876Z,9.40
2018-01-05T18:10:39.441Z,9.40
2018-01-05T18:13:06.989Z,9.30
2018-01-05T18:15:34.542Z,9.30
2018-01-05T18:18:02.133Z,9.20
2018-01-05T18:20:29.644Z,9.10
2018-01-05T18:22:57.242Z,9.00
2018-01-05T18:25:24.811Z,8.90
2018-01-05T18:27:52.330Z,8.90
2018-01-05T18:30:20.679Z,8.90
2018-01-05T18:32:48.195Z,8.80
2018-01-05T18:35:15.775Z,8.90
2018-01-05T18:37:44.056Z,8.80
2018-01-05T18:40:12.370Z,8.80
2018-01-05T18:42:39.952Z,8.80
2018-01-05T18:45:07.541Z,8.80
2018-01-05T18:47:35.177Z,8.70
2018-01-05T18:50:02.738Z,8.70
2018-01-05T18:52:30.314Z,8.70
2018-01-05T18:54:57.956Z,8.60
2018-01-05T18:57:25.522Z,8.60
2018-01-05T18:59:53.179Z,8.70
2018-01-05T19:02:20.717Z,8.70
2018-01-05T19:04:48.306Z,8.60
2018-01-05T19:07:15.868Z,8.60
2018-01-05T19:09:43.460Z,8.60
2018-01-05T19:12:10.972Z,8.60
2018-01-05T19:14:38.583Z,8.60
2018-01-05T19:17:06.153Z,8.70
2018-01-05T19:19:33.737Z,8.80
2018-01-05T19:22:01.300Z,8.80
2018-01-05T19:24:28.887Z,8.70
2018-01-05T19:26:56.478Z,8.80
2018-01-05T19:29:24.088Z,8.80
2018-01-05T19:31:51.656Z,8.70
2018-01-05T19:34:19.243Z,8.70
2018-01-05T19:36:47.574Z,8.60
2018-01-05T19:39:15.178Z,8.60
2018-01-05T19:41:42.752Z,8.50
2018-01-05T19:44:19.130Z,8.50
2018-01-05T19:46:47.321Z,8.50
2018-01-05T19:49:14.913Z,8.40
2018-01-05T19:51:42.481Z,8.40
2018-01-05T19:54:10.853Z,8.30
2018-01-05T19:56:38.434Z,8.30
2018-01-05T19:59:06.793Z,8.20
2018-01-05T20:01:34.351Z,8.20
2018-01-05T20:04:02.697Z,8.10
2018-01-05T20:06:46.861Z,8.10
2018-01-05T20:09:14.480Z,8.10
2018-01-05T20:11:42.049Z,8.10
2018-01-05T20:14:09.670Z,8.10
2018-01-05T20:16:38.025Z,8.00
2018-01-05T20:19:05.588Z,8.00
2018-01-05T20:21:33.182Z,8.00
2018-01-05T20:24:00.754Z,7.90
2018-01-05T20:26:28.344Z,7.90
2018-01-05T20:28:56.723Z,7.80
2018-01-05T20:31:24.329Z,7.80
2018-01-05T20:33:51.911Z,7.80
2018-01-05T20:36:19.529Z,7.70
2018-01-05T20:38:47.869Z,7.60
2018-01-05T20:41:15.465Z,7.60
2018-01-05T20:43:43.813Z,7.50
2018-01-05T20:46:11.406Z,7.50
2018-01-05T20:48:39.752Z,7.40
2018-01-05T20:51:07.439Z,7.40
2018-01-05T20:53:34.986Z,7.40
2018-01-05T20:56:02.573Z,7.40
2018-01-05T20:58:30.908Z,7.30
2018-01-05T21:00:58.487Z,7.30
2018-01-05T21:03:26.052Z,7.30
2018-01-05T21:05:53.626Z,7.30
2018-01-05T21:08:21.964Z,7.30
2018-01-05T21:10:49.564Z,7.20
2018-01-05T21:13:17.906Z,7.20
2018-01-05T21:15:45.505Z,7.20
2018-01-05T21:18:13.088Z,7.20
2018-01-05T21:20:40.684Z,7.20
2018-01-05T21:23:08.244Z,7.20
2018-01-05T21:25:35.823Z,7.10
2018-01-05T21:28:03.393Z,7.10
2018-01-05T21:30:31.751Z,7.10
2018-01-05T21:32:59.328Z,7.10
2018-01-05T21:35:27.760Z,7.10
2018-01-05T21:37:55.340Z,7.10
2018-01-05T21:40:22.969Z,7.10
2018-01-05T21:42:50.544Z,7.00
2018-01-05T21:45:18.264Z,7.00
2018-01-05T21:47:45.860Z,7.00
2018-01-05T21:50:13.555Z,7.00
2018-01-05T21:52:41.496Z,7.00
2018-01-05T21:55:11.011Z,7.00
2018-01-05T21:57:38.625Z,7.00
2018-01-05T22:00:06.284Z,7.00
2018-01-05T22:02:33.864Z,7.00
2018-01-05T22:05:01.535Z,7.00
2018-01-05T22:07:29.122Z,7.00
2018-01-05T22:09:56.701Z,7.00
2018-01-05T22:12:24.993Z,7.00
2018-01-05T22:14:52.669Z,7.00
2018-01-05T22:17:20.315Z,7.00
2018-01-05T22:19:47.920Z,7.10
2018-01-05T22:22:15.504Z,7.10
2018-01-05T22:24:43.064Z,7.10
2018-01-05T22:27:10.602Z,7.00
2018-01-05T22:29:38.154Z,7.00
2018-01-05T22:32:05.746Z,6.90
2018-01-05T22:34:34.080Z,6.80
2018-01-05T22:37:01.711Z,6.80
2018-01-05T22:39:29.279Z,6.80
2018-01-05T22:41:57.650Z,6.70
2018-01-05T22:44:25.217Z,6.70
2018-01-05T22:46:52.817Z,6.60
2018-01-05T22:49:20.383Z,6.60
2018-01-05T22:51:47.976Z,6.60
2018-01-05T22:54:16.320Z,6.60
2018-01-05T22:56:43.900Z,6.50
2018-01-05T22:59:12.228Z,6.60
2018-01-05T23:01:39.808Z,6.60
2018-01-05T23:04:07.368Z,6.60
2018-01-05T23:06:34.942Z,6.60
2018-01-05T23:09:02.549Z,6.60
2018-01-05T23:11:30.134Z,6.60
2018-01-05T23:13:57.701Z,6.60
2018-01-05T23:16:25.298Z,6.60
2018-01-05T23:18:53.583Z,6.60
2018-01-05T23:21:21.156Z,6.60
2018-01-05T23:23:48.726Z,6.60
2018-01-05T23:26:16.311Z,6.60
2018-01-05T23:28:43.863Z,6.60
2018-01-05T23:31:11.448Z,6.60
2018-01-05T23:33:39.017Z,6.60
2018-01-05T23:36:07.368Z,6.60
2018-01-05T23:38:34.923Z,6.60
2018-01-05T23:41:02.494Z,6.60
2018-01-05T23:43:30.053Z,6.60
2018-01-05T23:45:57.614Z,6.60
2018-01-05T23:48:25.197Z,6.60
2018-01-05T23:50:53.528Z,6.60
2018-01-05T23:53:21.112Z,6.60
2018-01-05T23:55:48.624Z,6.60
2018-01-05T23:58:16.207Z,6.60
